Time;durP1;ratioP1;P1;durP2;ratioP2;P2;SDS_P1;SDS_P2;PMS_P1;PMS_P2;Temp;Humidity;BMP_temperature;BMP_pressure;BME280_temperature;BME280_humidity;BME280_pressure;Samples;Min_cycle;Max_cycle;Signal;HPM_P1;HPM_P2
2022/07/13 00:00:06;;;;;;;7.53;2.40;;;20.50;99.90;;;;;;5057926;28;20563;-78
2022/07/13 00:02:57;;;;;;;3.70;2.53;;;20.50;99.90;;;;;;5054679;28;20045;-78
2022/07/13 00:05:22;;;;;;;5.72;2.78;;;20.50;99.90;;;;;;5059381;28;20058;-78
2022/07/13 00:07:48;;;;;;;5.20;2.92;;;20.50;99.90;;;;;;5065287;28;20119;-79
2022/07/13 00:10:14;;;;;;;4.72;2.90;;;20.50;99.90;;;;;;5057463;28;20365;-78
2022/07/13 00:12:39;;;;;;;4.68;2.85;;;20.50;99.90;;;;;;5057644;28;20716;-79
2022/07/13 00:15:06;;;;;;;4.55;2.70;;;20.50;99.90;;;;;;5057975;28;20044;-78
2022/07/13 00:17:31;;;;;;;5.03;2.50;;;20.50;99.90;;;;;;5061539;28;20519;-79
2022/07/13 00:19:57;;;;;;;6.32;2.90;;;20.40;99.90;;;;;;5059125;28;20045;-79
2022/07/13 00:22:25;;;;;;;6.55;2.85;;;20.40;99.90;;;;;;5067397;28;20083;-79
2022/07/13 00:24:51;;;;;;;5.57;2.45;;;20.40;99.90;;;;;;5066104;28;20044;-79
2022/07/13 00:27:16;;;;;;;8.38;2.80;;;20.50;99.90;;;;;;5054106;28;20033;-79
2022/07/13 00:29:42;;;;;;;3.80;2.45;;;20.70;99.90;;;;;;5060452;28;20049;-78
2022/07/13 00:32:07;;;;;;;5.72;2.85;;;20.40;99.90;;;;;;5064446;28;20492;-78
2022/07/13 00:34:33;;;;;;;6.18;2.20;;;20.30;99.90;;;;;;5052512;28;20076;-78
2022/07/13 00:36:59;;;;;;;4.15;1.88;;;20.40;99.90;;;;;;5064410;28;20037;-78
2022/07/13 00:39:24;;;;;;;4.68;2.65;;;20.40;99.90;;;;;;5058022;28;20128;-78
2022/07/13 00:41:50;;;;;;;6.07;2.90;;;20.40;99.90;;;;;;5052000;28;20041;-78
2022/07/13 00:44:17;;;;;;;4.85;2.50;;;20.30;99.90;;;;;;5062388;28;20532;-78
2022/07/13 00:46:53;;;;;;;3.97;2.78;;;20.50;99.90;;;;;;5052846;28;20534;-78
2022/07/13 00:49:19;;;;;;;4.68;2.85;;;20.30;99.90;;;;;;5062884;28;20036;-78
2022/07/13 00:51:45;;;;;;;5.88;3.20;;;20.60;99.90;;;;;;5062828;28;20036;-79
2022/07/13 00:54:11;;;;;;;4.47;2.97;;;20.70;99.90;;;;;;5059140;28;20055;-78
2022/07/13 00:56:37;;;;;;;4.35;2.60;;;20.30;99.90;;;;;;5056519;28;20056;-78
2022/07/13 00:59:04;;;;;;;5.68;3.28;;;20.30;99.90;;;;;;5062815;28;20045;-78
2022/07/13 01:01:30;;;;;;;4.80;3.45;;;20.30;99.90;;;;;;5054353;28;20056;-79
2022/07/13 01:03:56;;;;;;;7.18;2.95;;;20.30;99.90;;;;;;5063340;28;20060;-78
2022/07/13 01:06:23;;;;;;;4.93;2.90;;;20.40;99.90;;;;;;5058099;28;20477;-78
2022/07/13 01:08:49;;;;;;;4.93;3.10;;;20.80;99.90;;;;;;5058727;28;20484;-78
2022/07/13 01:11:15;;;;;;;6.18;3.10;;;20.20;99.90;;;;;;5063634;28;20097;-78
2022/07/13 01:13:40;;;;;;;6.60;4.07;;;20.20;99.90;;;;;;5056354;28;20040;-78
2022/07/13 01:16:08;;;;;;;5.25;3.42;;;20.40;99.90;;;;;;5067063;28;20048;-78
2022/07/13 01:18:34;;;;;;;6.93;4.10;;;20.20;99.90;;;;;;5058902;28;20052;-78
2022/07/13 01:21:00;;;;;;;5.47;3.60;;;20.30;99.90;;;;;;5058744;28;20036;-79
2022/07/13 01:23:27;;;;;;;5.93;4.68;;;20.20;99.90;;;;;;5064742;28;20423;-78
2022/07/13 01:25:56;;;;;;;7.60;3.88;;;20.20;99.90;;;;;;5066544;28;20490;-78
2022/07/13 01:28:23;;;;;;;5.80;3.70;;;20.70;99.90;;;;;;5056818;28;20051;-79
2022/07/13 01:30:49;;;;;;;6.95;4.18;;;20.20;99.90;;;;;;5058992;28;20365;-78
2022/07/13 01:33:15;;;;;;;7.90;5.00;;;20.20;99.90;;;;;;5060091;28;20135;-78
2022/07/13 01:35:41;;;;;;;6.20;4.95;;;20.20;99.90;;;;;;5065921;28;20075;-78
2022/07/13 01:38:06;;;;;;;6.35;4.82;;;20.20;99.90;;;;;;5060422;28;20403;-78
2022/07/13 01:40:32;;;;;;;7.53;5.28;;;20.20;99.90;;;;;;5059867;28;20040;-78
2022/07/13 01:42:58;;;;;;;7.88;5.22;;;20.20;99.90;;;;;;5059882;28;20043;-78
2022/07/13 01:45:24;;;;;;;7.88;5.10;;;20.70;99.90;;;;;;5059495;28;20167;-78
2022/07/13 01:47:52;;;;;;;8.70;5.60;;;20.20;99.90;;;;;;5053564;28;20052;-78
2022/07/13 01:50:21;;;;;;;6.70;5.32;;;20.20;99.90;;;;;;5055205;28;20061;-78
2022/07/13 01:52:47;;;;;;;6.93;5.07;;;20.20;99.90;;;;;;5056905;28;20040;-78
2022/07/13 01:55:14;;;;;;;7.32;5.72;;;20.20;99.90;;;;;;5060794;28;20059;-78
2022/07/13 01:57:39;;;;;;;7.38;5.10;;;20.10;99.90;;;;;;5062904;28;20052;-78
2022/07/13 02:00:16;;;;;;;7.03;6.10;;;20.10;99.90;;;;;;5057650;28;20044;-79
2022/07/13 02:02:42;;;;;;;7.18;5.35;;;20.10;99.90;;;;;;5056545;28;20115;-78
2022/07/13 02:05:11;;;;;;;8.07;5.75;;;20.20;99.90;;;;;;5051921;28;20798;-78
2022/07/13 02:07:38;;;;;;;7.20;5.47;;;20.70;99.90;;;;;;5060191;28;20396;-76
2022/07/13 02:10:05;;;;;;;7.00;5.57;;;20.10;99.90;;;;;;5056164;28;20189;-78
2022/07/13 02:12:31;;;;;;;10.15;6.18;;;20.10;99.90;;;;;;5050677;28;20514;-78
2022/07/13 02:14:57;;;;;;;10.15;6.35;;;20.10;99.90;;;;;;5062231;28;20044;-78
2022/07/13 02:17:23;;;;;;;6.63;5.03;;;20.30;99.90;;;;;;5057350;28;20105;-78
2022/07/13 02:19:48;;;;;;;9.02;6.50;;;20.40;99.90;;;;;;5048826;28;20588;-78
2022/07/13 02:22:14;;;;;;;9.35;6.30;;;20.20;99.90;;;;;;5064888;28;20052;-78
2022/07/13 02:24:40;;;;;;;7.68;5.93;;;20.00;99.90;;;;;;5063287;28;20450;-79
2022/07/13 02:27:05;;;;;;;7.63;5.95;;;20.10;99.90;;;;;;5058251;28;20488;-78
2022/07/13 02:29:31;;;;;;;7.68;6.28;;;20.10;99.90;;;;;;5059897;28;20127;-78
2022/07/13 02:31:57;;;;;;;7.25;5.57;;;20.10;99.90;;;;;;5059976;28;20041;-78
2022/07/13 02:34:27;;;;;;;12.68;6.05;;;20.10;99.90;;;;;;5053971;28;20040;-79
2022/07/13 02:37:01;;;;;;;7.70;6.72;;;20.20;99.90;;;;;;5065084;28;20165;-78
2022/07/13 02:39:27;;;;;;;10.23;6.43;;;20.00;99.90;;;;;;5059619;28;20047;-78
2022/07/13 02:41:52;;;;;;;7.72;6.35;;;20.00;99.90;;;;;;5061927;28;20033;-78
2022/07/13 02:44:18;;;;;;;8.18;6.35;;;20.00;99.90;;;;;;5059716;28;20400;-78
2022/07/13 02:46:44;;;;;;;7.70;5.85;;;20.60;99.90;;;;;;5062499;28;20041;-78
2022/07/13 02:49:10;;;;;;;9.95;6.60;;;20.10;99.90;;;;;;5058318;28;20060;-78
2022/07/13 02:51:36;;;;;;;8.82;5.70;;;20.00;99.90;;;;;;5054649;28;20092;-78
2022/07/13 02:54:02;;;;;;;6.10;4.90;;;20.00;99.90;;;;;;5070415;28;20581;-79
2022/07/13 02:56:27;;;;;;;9.48;5.78;;;20.00;99.90;;;;;;5062037;28;20384;-78
2022/07/13 02:58:56;;;;;;;8.38;5.63;;;20.00;99.90;;;;;;5057329;28;20044;-78
2022/07/13 03:01:22;;;;;;;7.05;5.50;;;20.00;99.90;;;;;;5061237;28;20403;-78
2022/07/13 03:03:47;;;;;;;9.40;5.72;;;20.00;99.90;;;;;;5059983;28;20040;-78
2022/07/13 03:06:13;;;;;;;10.48;5.65;;;20.60;99.90;;;;;;5059054;28;20466;-79
2022/07/13 03:08:39;;;;;;;8.50;5.90;;;20.00;99.90;;;;;;5056589;28;20412;-78
2022/07/13 03:11:04;;;;;;;7.78;5.97;;;20.30;99.90;;;;;;5066971;28;20484;-78
2022/07/13 03:13:30;;;;;;;8.75;5.40;;;20.30;99.90;;;;;;5062316;28;20489;-78
2022/07/13 03:15:56;;;;;;;9.88;4.75;;;20.00;99.90;;;;;;5067047;28;20748;-78
2022/07/13 03:18:21;;;;;;;7.13;5.05;;;20.10;99.90;;;;;;5060352;28;20130;-78
2022/07/13 03:20:47;;;;;;;6.18;4.97;;;20.00;99.90;;;;;;5057280;28;20461;-78
2022/07/13 03:23:13;;;;;;;8.65;5.80;;;20.00;99.90;;;;;;5052520;28;20151;-78
2022/07/13 03:25:38;;;;;;;11.13;5.60;;;20.20;99.90;;;;;;5060299;28;20418;-78
2022/07/13 03:28:04;;;;;;;7.75;5.53;;;20.40;99.90;;;;;;5063597;28;20299;-78
2022/07/13 03:30:30;;;;;;;7.60;5.85;;;20.00;99.90;;;;;;5064790;28;20048;-78
2022/07/13 03:32:55;;;;;;;6.97;5.28;;;20.00;99.90;;;;;;5063934;28;20151;-78
2022/07/13 03:35:22;;;;;;;8.15;5.70;;;20.00;99.90;;;;;;5065796;28;20473;-78
2022/07/13 03:37:47;;;;;;;7.43;5.38;;;20.30;99.90;;;;;;5066073;28;20029;-78
2022/07/13 03:40:13;;;;;;;7.05;5.60;;;20.00;99.90;;;;;;5070322;28;20464;-78
2022/07/13 03:42:38;;;;;;;9.93;5.00;;;20.00;99.90;;;;;;5060906;28;20052;-78
2022/07/13 03:45:05;;;;;;;7.88;5.47;;;20.00;99.90;;;;;;5063818;28;20045;-78
2022/07/13 03:47:31;;;;;;;6.65;5.18;;;20.00;99.90;;;;;;5060543;28;20033;-77
2022/07/13 03:49:56;;;;;;;6.15;4.82;;;20.00;99.90;;;;;;5056972;28;20399;-78
2022/07/13 03:52:22;;;;;;;9.27;5.40;;;20.00;99.90;;;;;;5063366;28;20076;-78
2022/07/13 03:54:48;;;;;;;9.82;5.57;;;20.00;99.90;;;;;;5051924;28;20041;-78
2022/07/13 03:57:14;;;;;;;6.15;4.70;;;20.00;99.90;;;;;;5057491;28;20041;-78
2022/07/13 03:59:39;;;;;;;8.20;5.07;;;20.00;99.90;;;;;;5060304;28;20045;-78
2022/07/13 04:02:05;;;;;;;7.60;4.80;;;19.90;99.90;;;;;;5066306;28;20053;-78
2022/07/13 04:04:30;;;;;;;6.78;5.03;;;20.00;99.90;;;;;;5050737;28;20056;-78
2022/07/13 04:06:56;;;;;;;6.32;4.90;;;20.00;99.90;;;;;;5057113;28;20044;-78
2022/07/13 04:09:22;;;;;;;6.47;4.80;;;20.70;99.90;;;;;;5066419;28;20051;-78
2022/07/13 04:11:48;;;;;;;6.75;4.70;;;20.00;99.90;;;;;;5056295;28;20057;-78
2022/07/13 04:14:14;;;;;;;6.05;4.75;;;20.00;99.90;;;;;;5058845;28;20037;-77
2022/07/13 04:16:39;;;;;;;8.77;5.00;;;20.00;99.90;;;;;;5060272;28;20043;-77
2022/07/13 04:19:05;;;;;;;7.95;4.72;;;20.00;99.90;;;;;;5067905;28;20134;-78
2022/07/13 04:21:31;;;;;;;6.68;4.95;;;19.90;99.90;;;;;;5061701;28;20048;-78
2022/07/13 04:23:57;;;;;;;8.38;5.68;;;20.00;99.90;;;;;;5068516;28;20072;-77
2022/07/13 04:26:23;;;;;;;6.45;4.57;;;20.00;99.90;;;;;;5057653;28;20553;-77
2022/07/13 04:28:48;;;;;;;6.70;5.03;;;20.00;99.90;;;;;;5065760;28;20040;-78
2022/07/13 04:31:14;;;;;;;7.63;5.13;;;20.00;99.90;;;;;;5053504;28;20055;-78
2022/07/13 04:33:40;;;;;;;6.72;4.88;;;20.00;99.90;;;;;;5061352;28;20139;-77
2022/07/13 04:36:07;;;;;;;6.63;5.15;;;20.00;99.90;;;;;;5066945;28;20561;-78
2022/07/13 04:38:34;;;;;;;6.07;4.75;;;20.00;99.90;;;;;;5068621;28;20044;-77
2022/07/13 04:40:59;;;;;;;6.80;5.60;;;20.30;99.90;;;;;;5060109;28;20044;-78
2022/07/13 04:43:26;;;;;;;9.57;5.72;;;20.00;99.90;;;;;;5063863;28;20104;-77
2022/07/13 04:45:51;;;;;;;7.93;5.40;;;20.00;99.90;;;;;;5062970;28;20036;-78
2022/07/13 04:48:18;;;;;;;7.88;5.78;;;20.00;99.90;;;;;;5054884;28;20051;-78
2022/07/13 04:50:43;;;;;;;8.13;4.97;;;20.40;99.90;;;;;;5060797;28;20037;-78
2022/07/13 04:53:09;;;;;;;9.20;5.03;;;20.40;99.90;;;;;;5060917;28;20041;-81
2022/07/13 04:55:40;;;;;;;9.18;5.03;;;20.10;99.90;;;;;;5063878;28;20048;-78
2022/07/13 04:58:07;;;;;;;9.93;5.55;;;20.10;99.90;;;;;;5060618;28;20377;-78
2022/07/13 05:00:34;;;;;;;7.07;4.72;;;20.50;99.90;;;;;;5058557;28;20044;-78
2022/07/13 05:02:59;;;;;;;8.13;5.40;;;20.10;99.90;;;;;;5066568;28;20040;-78
2022/07/13 05:05:25;;;;;;;7.97;5.43;;;20.20;99.90;;;;;;5052281;28;20547;-79
2022/07/13 05:07:51;;;;;;;9.50;5.57;;;20.20;99.90;;;;;;5058060;28;20071;-77
2022/07/13 05:10:16;;;;;;;8.25;5.40;;;20.70;99.90;;;;;;5064901;28;20059;-78
2022/07/13 05:12:42;;;;;;;5.70;4.43;;;20.20;99.90;;;;;;5057566;28;20044;-78
2022/07/13 05:15:09;;;;;;;8.25;5.20;;;20.20;99.90;;;;;;5058411;28;20080;-78
2022/07/13 05:17:35;;;;;;;10.30;5.30;;;20.30;99.90;;;;;;5058437;28;20052;-78
2022/07/13 05:20:01;;;;;;;6.65;5.15;;;20.20;99.90;;;;;;5051504;28;20408;-78
2022/07/13 05:22:27;;;;;;;7.45;5.22;;;20.30;99.90;;;;;;5050670;28;20053;-78
2022/07/13 05:24:52;;;;;;;9.25;5.00;;;20.90;99.90;;;;;;5051696;28;20114;-79
2022/07/13 05:27:27;;;;;;;8.23;5.28;;;21.10;99.90;;;;;;5062204;28;20152;-80
2022/07/13 05:29:53;;;;;;;7.13;5.22;;;20.30;99.90;;;;;;5058712;28;20398;-79
2022/07/13 05:32:19;;;;;;;6.13;4.90;;;20.60;99.90;;;;;;5054893;28;20036;-79
2022/07/13 05:34:44;;;;;;;6.20;4.95;;;20.50;99.90;;;;;;5070006;28;20041;-79
2022/07/13 05:37:10;;;;;;;8.63;4.78;;;20.60;99.90;;;;;;5059814;28;20063;-80
2022/07/13 05:39:36;;;;;;;9.07;5.03;;;20.40;99.90;;;;;;5062187;28;20036;-80
2022/07/13 05:42:01;;;;;;;9.70;5.20;;;20.30;99.90;;;;;;5054316;28;20123;-79
2022/07/13 05:44:28;;;;;;;6.43;5.18;;;20.40;99.90;;;;;;5049507;28;20083;-79
2022/07/13 05:46:54;;;;;;;7.15;5.18;;;20.70;99.90;;;;;;5056324;28;20479;-78
2022/07/13 05:49:20;;;;;;;6.40;4.97;;;20.60;99.90;;;;;;5056630;28;20044;-78
2022/07/13 05:51:46;;;;;;;8.00;5.13;;;20.50;99.90;;;;;;5059976;28;20528;-79
2022/07/13 05:54:11;;;;;;;7.35;5.03;;;20.70;99.90;;;;;;5054275;28;20055;-78
2022/07/13 05:56:37;;;;;;;6.45;4.70;;;20.90;99.90;;;;;;5051209;28;20122;-79
2022/07/13 05:59:03;;;;;;;6.40;5.15;;;20.90;99.90;;;;;;5060821;28;20094;-79
2022/07/13 06:01:28;;;;;;;10.40;5.55;;;20.70;99.90;;;;;;5061553;28;20099;-79
2022/07/13 06:03:54;;;;;;;8.02;4.75;;;21.00;99.90;;;;;;5058245;28;20037;-79
2022/07/13 06:06:19;;;;;;;7.45;5.38;;;20.80;99.90;;;;;;5055439;28;20040;-79
2022/07/13 06:08:45;;;;;;;9.50;6.10;;;21.10;99.90;;;;;;5061679;28;20049;-79
2022/07/13 06:11:10;;;;;;;8.10;5.40;;;21.20;99.90;;;;;;5058454;28;20427;-80
2022/07/13 06:13:36;;;;;;;6.47;5.22;;;20.90;99.90;;;;;;5059702;28;20132;-80
2022/07/13 06:16:02;;;;;;;7.32;5.35;;;21.00;99.90;;;;;;5061896;28;20045;-82
2022/07/13 06:18:28;;;;;;;8.23;5.90;;;21.00;99.90;;;;;;5068199;28;20155;-79
2022/07/13 06:20:53;;;;;;;12.27;6.13;;;21.00;99.90;;;;;;5066155;28;20131;-85
2022/07/13 06:23:21;;;;;;;8.60;6.07;;;21.40;99.90;;;;;;5055675;28;20142;-86
2022/07/13 06:25:47;;;;;;;9.43;5.90;;;21.10;99.90;;;;;;5064458;28;20440;-88
2022/07/13 06:28:13;;;;;;;8.23;5.68;;;21.20;99.90;;;;;;5062421;28;20037;-87
2022/07/13 06:30:39;;;;;;;8.43;5.97;;;21.30;99.90;;;;;;5066102;28;20028;-84
2022/07/13 06:33:05;;;;;;;11.18;6.47;;;21.80;99.90;;;;;;5061862;28;20468;-86
2022/07/13 06:35:31;;;;;;;8.55;5.97;;;21.50;99.90;;;;;;5060923;28;20037;-87
2022/07/13 06:37:57;;;;;;;7.75;5.75;;;21.60;99.90;;;;;;5061088;28;20127;-85
2022/07/13 06:40:23;;;;;;;9.93;6.03;;;22.00;99.90;;;;;;5066516;28;20045;-89
2022/07/13 06:42:49;;;;;;;8.30;5.70;;;21.70;99.90;;;;;;5060924;28;20481;-87
2022/07/13 06:45:15;;;;;;;10.40;5.80;;;21.90;99.90;;;;;;5061298;28;20079;-87
2022/07/13 06:47:41;;;;;;;8.38;5.45;;;21.90;99.90;;;;;;5061141;28;20068;-87
2022/07/13 06:50:07;;;;;;;8.88;5.82;;;21.90;99.90;;;;;;5064688;28;20056;-88
2022/07/13 06:52:33;;;;;;;8.65;6.30;;;22.00;99.90;;;;;;5065218;28;20095;-87
2022/07/13 06:54:59;;;;;;;12.00;6.20;;;22.10;99.90;;;;;;5063037;28;20454;-87
2022/07/13 06:57:24;;;;;;;12.90;6.10;;;22.10;99.90;;;;;;5064552;28;20040;-87
2022/07/13 06:59:50;;;;;;;8.30;5.45;;;22.10;99.90;;;;;;5065408;28;20082;-87
2022/07/13 07:02:15;;;;;;;10.82;7.05;;;22.20;99.90;;;;;;5058986;28;20036;-87
2022/07/13 07:04:41;;;;;;;8.75;7.07;;;22.30;99.90;;;;;;5064047;28;20041;-87
2022/07/13 07:07:08;;;;;;;8.40;5.70;;;22.40;99.90;;;;;;5063663;28;20404;-87
2022/07/13 07:09:34;;;;;;;9.02;7.00;;;22.40;99.90;;;;;;5063794;28;20052;-87
2022/07/13 07:11:59;;;;;;;8.73;6.45;;;22.40;99.90;;;;;;5069977;28;20071;-87
2022/07/13 07:14:25;;;;;;;11.20;7.18;;;22.40;99.90;;;;;;5071149;28;20109;-87
2022/07/13 07:16:51;;;;;;;9.93;7.13;;;22.50;99.90;;;;;;5065089;28;20134;-84
2022/07/13 07:19:17;;;;;;;11.02;7.00;;;22.70;99.90;;;;;;5061057;28;20127;-85
2022/07/13 07:21:42;;;;;;;11.35;6.85;;;22.90;99.90;;;;;;5054130;28;20144;-88
2022/07/13 07:24:08;;;;;;;11.02;6.28;;;23.40;99.90;;;;;;5061096;28;20056;-88
2022/07/13 07:26:34;;;;;;;10.38;7.05;;;23.50;99.90;;;;;;5062346;28;20109;-88
2022/07/13 07:28:59;;;;;;;8.68;6.50;;;23.10;99.90;;;;;;5058679;28;20048;-88
2022/07/13 07:31:25;;;;;;;10.13;7.00;;;23.50;99.90;;;;;;5070992;28;20041;-88
2022/07/13 07:33:51;;;;;;;11.65;8.05;;;23.40;99.90;;;;;;5060169;28;20107;-88
2022/07/13 07:36:17;;;;;;;12.10;7.07;;;23.30;99.90;;;;;;5067088;28;20040;-88
2022/07/13 07:38:44;;;;;;;12.93;7.75;;;23.20;99.90;;;;;;5055488;28;20055;-87
2022/07/13 07:41:10;;;;;;;11.77;7.97;;;23.20;99.90;;;;;;5057958;28;20041;-88
2022/07/13 07:43:37;;;;;;;9.95;6.90;;;23.30;99.90;;;;;;5053314;28;20408;-88
2022/07/13 07:46:04;;;;;;;12.63;8.23;;;23.40;99.90;;;;;;5064291;28;20441;-87
2022/07/13 07:48:29;;;;;;;11.38;8.45;;;23.40;99.90;;;;;;5066368;28;20090;-88
2022/07/13 07:50:55;;;;;;;14.93;8.38;;;23.40;99.90;;;;;;5056175;28;20515;-89
2022/07/13 07:53:21;;;;;;;14.77;9.65;;;23.20;99.90;;;;;;5056119;28;20041;-89
2022/07/13 07:55:46;;;;;;;13.00;8.80;;;23.30;99.90;;;;;;5052315;28;20047;-88
2022/07/13 07:58:13;;;;;;;10.90;7.20;;;23.40;99.90;;;;;;5062690;28;20041;-88
2022/07/13 08:00:40;;;;;;;15.23;8.50;;;23.50;99.90;;;;;;5060572;28;20044;-87
2022/07/13 08:03:06;;;;;;;10.60;8.38;;;23.90;99.90;;;;;;5075221;28;20495;-88
2022/07/13 08:05:32;;;;;;;11.35;7.90;;;23.70;99.90;;;;;;5062807;28;20131;-88
2022/07/13 08:07:58;;;;;;;10.88;7.90;;;23.90;99.90;;;;;;5057740;28;20136;-88
2022/07/13 08:10:24;;;;;;;14.00;7.90;;;24.00;99.90;;;;;;5069214;28;20048;-85
2022/07/13 08:12:50;;;;;;;13.07;7.97;;;24.20;99.90;;;;;;5068851;28;20044;-86
2022/07/13 08:15:15;;;;;;;11.20;8.20;;;24.40;99.90;;;;;;5066854;28;20048;-80
2022/07/13 08:17:41;;;;;;;10.75;7.88;;;24.50;99.90;;;;;;5068717;28;20037;-81
2022/07/13 08:20:07;;;;;;;10.57;7.38;;;24.80;99.90;;;;;;5068870;28;20407;-81
2022/07/13 08:22:33;;;;;;;13.07;8.70;;;24.70;99.90;;;;;;5065300;28;20515;-81
2022/07/13 08:24:58;;;;;;;13.48;7.97;;;24.80;99.90;;;;;;5055928;28;20049;-81
2022/07/13 08:27:26;;;;;;;10.90;7.25;;;24.90;99.90;;;;;;5058214;28;20058;-80
2022/07/13 08:29:51;;;;;;;12.55;8.10;;;25.00;99.90;;;;;;5059983;28;20044;-80
2022/07/13 08:32:17;;;;;;;11.75;7.68;;;25.10;99.90;;;;;;5057414;28;20508;-80
2022/07/13 08:40:11;;;;;;;;;;;25.30;99.90;;;;;;5066783;28;20052;-83
2022/07/13 08:42:38;;;;;;;10.73;5.80;;;25.30;99.90;;;;;;5054952;28;19928;-82
2022/07/13 08:45:05;;;;;;;9.93;5.07;;;25.40;99.90;;;;;;5060989;28;20060;-83
2022/07/13 08:47:31;;;;;;;10.02;5.85;;;25.40;99.90;;;;;;5053558;28;20531;-85
2022/07/13 08:50:06;;;;;;;11.13;5.88;;;25.50;99.90;;;;;;5059265;28;20037;-86
2022/07/13 08:52:34;;;;;;;9.18;5.97;;;25.60;99.90;;;;;;5059456;28;20486;-84
2022/07/13 08:55:03;;;;;;;10.52;5.40;;;25.60;99.90;;;;;;5063382;28;20382;-91
2022/07/13 08:57:29;;;;;;;8.38;4.57;;;25.70;99.90;;;;;;5057641;28;20037;-93
2022/07/13 08:59:54;;;;;;;7.68;4.32;;;25.80;99.90;;;;;;5055850;28;20721;-91
2022/07/13 09:02:20;;;;;;;6.82;4.22;;;25.70;99.90;;;;;;5055966;28;20155;-93
2022/07/13 09:04:46;;;;;;;6.53;2.88;;;25.80;99.90;;;;;;5066152;28;20037;-93
2022/07/13 09:07:11;;;;;;;6.95;3.70;;;25.90;99.90;;;;;;5066342;28;20043;-92
2022/07/13 09:09:38;;;;;;;6.70;4.07;;;25.90;99.90;;;;;;5061883;28;20127;-93
2022/07/13 09:12:17;;;;;;;6.20;3.63;;;25.90;99.90;;;;;;5065995;28;20036;-90
2022/07/13 09:15:09;;;;;;;8.10;3.72;;;25.90;99.90;;;;;;5065652;28;20497;-91
2022/07/13 09:17:38;;;;;;;9.88;3.45;;;26.00;99.90;;;;;;5066726;28;20075;-94
2022/07/13 09:20:10;;;;;;;6.18;3.10;;;26.10;99.90;;;;;;5071850;28;20044;-93
2022/07/13 09:22:52;;;;;;;6.43;2.22;;;26.10;99.90;;;;;;5058443;28;20110;-93
2022/07/13 09:25:32;;;;;;;5.68;2.85;;;26.20;99.90;;;;;;5065052;28;20087;-96
2022/07/13 09:28:02;;;;;;;7.13;3.13;;;26.20;99.90;;;;;;5064536;28;20102;-95
2022/07/13 09:30:28;;;;;;;10.35;3.00;;;26.30;99.90;;;;;;5068172;28;20046;-96
2022/07/13 09:32:55;;;;;;;4.93;2.47;;;26.40;99.90;;;;;;5060016;28;20033;-94
2022/07/13 09:35:40;;;;;;;10.07;4.10;;;26.40;99.90;;;;;;5062228;28;20048;-83
2022/07/13 09:38:05;;;;;;;8.13;3.33;;;26.40;99.90;;;;;;5065008;28;20056;-88
2022/07/13 09:40:31;;;;;;;5.93;2.70;;;26.50;99.90;;;;;;5056716;28;20045;-90
2022/07/13 09:48:26;;;;;;;5.13;2.72;;;26.60;99.90;;;;;;5066306;28;20109;-84
2022/07/13 09:50:57;;;;;;;8.02;3.13;;;26.70;99.90;;;;;;5060164;28;20045;-85
2022/07/13 09:53:29;;;;;;;7.60;2.55;;;26.70;99.90;;;;;;5063531;28;20037;-83
2022/07/13 09:56:03;;;;;;;7.88;2.92;;;26.80;99.90;;;;;;5061197;28;20060;-84
2022/07/13 09:58:31;;;;;;;5.67;2.80;;;26.80;99.90;;;;;;5056319;28;20511;-83
2022/07/13 10:00:58;;;;;;;7.55;2.72;;;26.90;99.90;;;;;;5060554;28;20298;-83
2022/07/13 10:03:25;;;;;;;6.45;2.70;;;27.00;99.90;;;;;;5062596;28;20481;-83
2022/07/13 10:05:54;;;;;;;7.45;2.65;;;27.00;99.90;;;;;;5063105;28;20605;-83
2022/07/13 10:08:20;;;;;;;6.13;2.72;;;27.10;99.90;;;;;;5059717;28;20044;-82
2022/07/13 10:10:47;;;;;;;5.07;2.25;;;27.10;99.90;;;;;;5063054;28;20090;-82
2022/07/13 10:13:14;;;;;;;6.07;2.60;;;27.20;99.90;;;;;;5060111;28;20067;-83
2022/07/13 10:15:40;;;;;;;7.72;2.67;;;27.20;99.70;;;;;;5064839;28;20497;-83
2022/07/13 10:18:09;;;;;;;7.07;2.22;;;27.30;99.90;;;;;;5070503;28;20047;-83
2022/07/13 10:20:37;;;;;;;5.57;2.60;;;27.30;99.80;;;;;;5068752;28;20124;-84
2022/07/13 10:23:03;;;;;;;8.88;3.00;;;27.40;99.60;;;;;;5067294;28;20408;-84
2022/07/13 10:25:45;;;;;;;5.97;2.30;;;27.40;99.30;;;;;;5065401;28;20797;-83
2022/07/13 10:28:12;;;;;;;5.78;2.55;;;27.40;97.00;;;;;;5070484;28;20052;-83
2022/07/13 10:30:38;;;;;;;7.55;2.40;;;27.50;99.60;;;;;;5064696;28;20033;-85
2022/07/13 10:33:21;;;;;;;6.22;2.25;;;27.50;99.90;;;;;;5064043;28;20079;-85
2022/07/13 10:35:51;;;;;;;7.32;2.80;;;27.70;98.60;;;;;;5069312;28;20056;-85
2022/07/13 10:38:26;;;;;;;6.32;2.50;;;27.70;97.40;;;;;;5064082;28;20043;-84
2022/07/13 10:41:21;;;;;;;7.60;2.13;;;27.70;97.70;;;;;;5067688;28;20055;-85
2022/07/13 10:44:32;;;;;;;5.43;2.03;;;27.70;97.80;;;;;;5067169;28;20026;-85
2022/07/13 10:46:59;;;;;;;8.18;2.20;;;27.80;98.60;;;;;;5038046;28;20045;-85
2022/07/13 10:49:30;;;;;;;4.10;2.47;;;27.90;99.00;;;;;;5070951;28;20048;-85
2022/07/13 10:52:16;;;;;;;7.10;2.08;;;28.00;98.00;;;;;;5071345;28;20511;-85
2022/07/13 10:55:06;;;;;;;4.47;1.60;;;28.10;97.70;;;;;;5054454;28;20033;-85
2022/07/13 10:57:32;;;;;;;3.38;1.70;;;28.20;96.10;;;;;;5062881;28;20519;-85
2022/07/13 11:00:19;;;;;;;2.65;1.60;;;28.30;96.00;;;;;;5071740;28;20373;-85
2022/07/13 11:03:16;;;;;;;3.88;1.50;;;28.40;96.50;;;;;;5066350;28;20040;-86
2022/07/13 11:06:05;;;;;;;3.55;1.63;;;28.50;95.30;;;;;;5054099;28;20048;-83
2022/07/13 11:08:31;;;;;;;6.97;1.90;;;28.70;96.60;;;;;;5054312;28;20087;-85
2022/07/13 11:11:13;;;;;;;3.70;1.90;;;28.70;96.20;;;;;;5067765;28;20076;-85
2022/07/13 11:13:40;;;;;;;5.13;1.90;;;28.80;95.80;;;;;;5060427;28;20072;-85
2022/07/13 11:16:07;;;;;;;3.85;1.52;;;28.90;96.30;;;;;;5062117;28;20457;-85
2022/07/13 11:18:37;;;;;;;4.57;2.00;;;28.90;96.50;;;;;;5068346;28;20078;-85
2022/07/13 11:21:18;;;;;;;3.83;1.58;;;28.90;96.10;;;;;;5057616;28;20044;-85
2022/07/13 11:26:51;;;;;;;2.78;1.23;;;29.20;95.80;;;;;;5060148;28;20049;-86
2022/07/13 11:29:48;;;;;;;4.18;1.50;;;29.20;96.00;;;;;;5061529;28;20462;-85
2022/07/13 11:32:13;;;;;;;3.00;1.20;;;29.30;94.00;;;;;;5053830;28;20171;-85
2022/07/13 11:34:42;;;;;;;4.82;1.30;;;29.30;94.70;;;;;;5062205;28;20123;-85
2022/07/13 11:37:08;;;;;;;2.83;1.27;;;29.40;93.40;;;;;;5071066;28;20041;-85
2022/07/13 11:39:35;;;;;;;2.38;1.20;;;29.50;93.30;;;;;;5056889;28;20055;-84
2022/07/13 11:42:05;;;;;;;3.13;1.33;;;29.60;93.40;;;;;;5062116;28;20522;-85
2022/07/13 11:44:32;;;;;;;2.72;1.20;;;29.60;91.80;;;;;;5063699;28;20373;-85
2022/07/13 11:47:04;;;;;;;2.58;1.10;;;29.70;90.80;;;;;;5060219;28;20127;-84
2022/07/13 11:49:48;;;;;;;2.65;1.25;;;29.70;91.70;;;;;;5053429;28;20049;-86
2022/07/13 11:52:20;;;;;;;3.80;1.20;;;29.70;92.00;;;;;;5052246;28;20055;-85
2022/07/13 11:54:57;;;;;;;4.63;1.42;;;29.80;92.40;;;;;;5055993;28;20079;-85
2022/07/13 11:57:23;;;;;;;2.30;1.10;;;29.70;90.90;;;;;;5062766;28;20504;-85
2022/07/13 11:59:49;;;;;;;2.22;1.13;;;29.60;91.60;;;;;;5057727;28;20174;-85
2022/07/13 12:02:14;;;;;;;3.97;0.93;;;29.40;92.40;;;;;;5055769;28;20127;-85
2022/07/13 12:04:41;;;;;;;5.05;1.30;;;29.20;91.30;;;;;;5071682;28;20037;-85
2022/07/13 12:07:19;;;;;;;2.38;1.20;;;29.10;92.00;;;;;;5069998;28;20048;-85
2022/07/13 12:09:55;;;;;;;3.50;1.58;;;29.00;91.70;;;;;;5056475;28;20067;-85
2022/07/13 12:12:26;;;;;;;2.83;1.40;;;29.00;91.90;;;;;;5074717;28;20080;-85
2022/07/13 12:14:52;;;;;;;4.55;1.50;;;28.90;92.70;;;;;;5062089;28;20105;-85
2022/07/13 12:17:19;;;;;;;5.75;1.52;;;28.90;93.40;;;;;;5063924;28;20564;-86
2022/07/13 12:19:45;;;;;;;3.72;1.42;;;28.90;93.00;;;;;;5071422;28;20492;-85
2022/07/13 12:22:10;;;;;;;4.15;1.40;;;28.90;91.70;;;;;;5063616;28;20049;-85
2022/07/13 12:24:43;;;;;;;3.38;1.60;;;29.00;92.70;;;;;;5050643;28;20049;-86
2022/07/13 12:27:09;;;;;;;3.63;1.30;;;28.90;93.20;;;;;;5058502;28;20114;-84
2022/07/13 12:29:35;;;;;;;2.90;1.58;;;28.70;93.10;;;;;;5059266;28;20041;-85
2022/07/13 12:32:02;;;;;;;3.20;1.50;;;28.60;93.30;;;;;;5050210;28;20041;-85
2022/07/13 12:34:28;;;;;;;3.67;1.70;;;28.70;93.40;;;;;;5058379;28;20049;-85
2022/07/13 12:36:54;;;;;;;3.72;1.42;;;28.80;94.00;;;;;;5063143;28;20037;-85
2022/07/13 12:39:41;;;;;;;4.35;1.70;;;28.80;93.60;;;;;;5064254;28;20044;-85
2022/07/13 12:42:07;;;;;;;6.32;1.52;;;28.90;94.50;;;;;;5051909;28;20101;-84
2022/07/13 12:44:35;;;;;;;7.70;2.08;;;28.90;94.80;;;;;;5055937;28;20040;-85
2022/07/13 12:47:01;;;;;;;6.65;2.03;;;28.90;94.00;;;;;;5049680;28;20044;-85
2022/07/13 12:49:28;;;;;;;5.03;1.83;;;28.80;93.60;;;;;;5054865;28;20098;-86
2022/07/13 12:51:54;;;;;;;3.58;1.80;;;28.70;94.60;;;;;;5064807;28;20037;-84
2022/07/13 12:54:57;;;;;;;4.68;1.80;;;28.60;94.70;;;;;;5052688;28;20432;-85
2022/07/13 12:57:24;;;;;;;4.85;2.08;;;28.70;95.60;;;;;;5058818;28;20040;-84
2022/07/13 13:00:09;;;;;;;5.97;1.90;;;28.80;95.10;;;;;;5058210;28;20066;-85
2022/07/13 13:02:36;;;;;;;4.68;1.60;;;28.90;94.30;;;;;;5050575;28;20045;-85